Detall de PIREP

Printer-friendly versionPDF version

[2010/09/25 14:54:00]
Flight IATA:CT1006
Pilot Number:026
Company ICAO:CAT
Aircraft Type:DC85/A
PAX:136
Departing Airport: LFMP
Destination Airport: LEAL
Alternate Airport:LEPA
Online: VATSIM
Route:BGR UN975 BCN UM985 VLC
Flight Level:FL290
No Slew and time accel
No pause
Crash detect
Detect pilot in Cockpit between each 30 and 45 minutes
14:54 Zero fuel Weight: 172027 Lbs, Fuel Weight: 30447 Lbs
14:54 VATSIM:LFMP 251400Z 31019G31KT 9999 FEW050 21/08 Q1009 NOSIG
14:54 VATSIM:LEAL 251430Z 19010KT 150V250 9999 FEW030 26/18 Q1008 NOSIG
14:54 VOICE CATALONIAN / ALMOGAVERS ROUTE
15:06 Parking Brakes off
15:17 Take-off
15:17 Take off Weight: 201261 Lbs
15:17 Wind: 306º @ 016 Knots Heading: 325º
15:17 POS N42º 44´ 49´´ E002º 52´ 03´´
15:17 Gear Up: 168 Knots
15:17 Flaps:2 at 168 Knots
15:18 Flaps:1 at 208 Knots
15:19 Flaps:0 at 191 Knots
15:27 TOC
15:27 Fuel Weight:25780 Lb
15:28 TOD
15:28 Fuel Weight: 25488 Lb
15:28 TOC
15:28 Fuel Weight: 25391 Lb
15:32 Wind:131º@016 Knots Heading: 264º Ground Speed: 497 Knots Altitude 28822 ft
15:47 Wind:257º@049 Knots Heading: 231º Ground Speed: 434 Knots Altitude 28822 ft
15:55 TOD
15:55 Fuel Weight: 18922 Lb
16:02 Wind:339º@036 Knots Heading: 229º Ground Speed: 398 Knots Altitude 19265 ft
16:15 Flaps:1 at 238 Knots
16:15 Flaps:0 at 237 Knots
16:16 Flaps:1 at 205 Knots
16:16 Gear Down: 207 Knots
16:17 Wind:179º@017 Knots Heading: 104º Ground Speed: 202 Knots Altitude 2785 ft
16:17 Flaps:2 at 174 Knots
16:18 Flaps:3 at 177 Knots
16:18 Flaps:4 at 165 Knots
16:18 Flaps:5 at 166 Knots
16:19 TouchDown:Rate -83 ft/min Speed: 126 Knots
16:19 VATSIM:LEAL 251600Z 18011KT 140V220 9999 FEW030 25/18 Q1008 NOSIG
16:19 Land
16:19 Wind:167º@011 Knots
16:19 Heading: 093º
16:19 Flight Duration: 01:02
16:19 Landing Weight: 188756 Lbs
16:19 POS N38º 16´ 55´´ W000º 33´ 30´´
16:26 Parking brakes on
16:26 Block to Block Duration: 01:20
16:26 Final Fuel: 16135 Lbls
16:26 Spent Fuel: 14312 Lbls
16:26 Flight Length: 403 NM
16:26 TOD Land Length: 129 NM

Exportar CSV

Powered by Drupal - Modified by Danger4k